sensor_id;sensor_type;location;lat;lon;timestamp;temperature;humidity
3998;DHT22;61314;53.444;9.902;2024-01-27T16:04:19;5.90;99.90
3998;DHT22;61314;53.444;9.902;2024-01-27T16:06:45;5.90;99.90
3998;DHT22;61314;53.444;9.902;2024-01-27T16:09:12;5.80;99.90
3998;DHT22;61314;53.444;9.902;2024-01-27T16:11:39;5.80;99.90
3998;DHT22;61314;53.444;9.902;2024-01-27T16:14:06;5.70;99.90
3998;DHT22;61314;53.444;9.902;2024-01-27T16:16:33;5.70;99.90
3998;DHT22;61314;53.444;9.902;2024-01-27T16:18:59;5.70;99.90
3998;DHT22;61314;53.444;9.902;2024-01-27T16:21:26;5.70;99.90
3998;DHT22;61314;53.444;9.902;2024-01-27T16:23:56;5.60;99.90
3998;DHT22;61314;53.444;9.902;2024-01-27T16:26:23;5.70;99.90
3998;DHT22;61314;53.444;9.902;2024-01-27T16:28:50;5.60;99.90
3998;DHT22;61314;53.444;9.902;2024-01-27T16:31:17;5.60;99.90
3998;DHT22;61314;53.444;9.902;2024-01-27T16:33:44;5.70;99.90
3998;DHT22;61314;53.444;9.902;2024-01-27T16:36:11;5.50;99.90
3998;DHT22;61314;53.444;9.902;2024-01-27T16:38:38;5.50;99.90
3998;DHT22;61314;53.444;9.902;2024-01-27T16:41:08;5.50;99.90
3998;DHT22;61314;53.444;9.902;2024-01-27T16:43:35;5.40;99.90
3998;DHT22;61314;53.444;9.902;2024-01-27T16:46:04;5.50;99.90
3998;DHT22;61314;53.444;9.902;2024-01-27T16:48:33;5.40;99.90
3998;DHT22;61314;53.444;9.902;2024-01-27T16:53:28;5.30;99.90
3998;DHT22;61314;53.444;9.902;2024-01-27T16:55:56;5.30;99.90
3998;DHT22;61314;53.444;9.902;2024-01-27T16:58:23;5.30;99.90
3998;DHT22;61314;53.444;9.902;2024-01-27T17:00:50;5.40;99.90
3998;DHT22;61314;53.444;9.902;2024-01-27T17:03:19;5.30;99.90
3998;DHT22;61314;53.444;9.902;2024-01-27T17:05:46;5.30;99.90
3998;DHT22;61314;53.444;9.902;2024-01-27T17:08:13;5.30;99.90
3998;DHT22;61314;53.444;9.902;2024-01-27T17:10:40;5.20;99.90
3998;DHT22;61314;53.444;9.902;2024-01-27T17:13:06;5.20;99.90
3998;DHT22;61314;53.444;9.902;2024-01-27T17:15:33;5.30;99.90
3998;DHT22;61314;53.444;9.902;2024-01-27T17:18:01;5.20;99.90
3998;DHT22;61314;53.444;9.902;2024-01-27T17:20:28;5.20;99.90
3998;DHT22;61314;53.444;9.902;2024-01-27T17:22:54;5.40;99.90
3998;DHT22;61314;53.444;9.902;2024-01-27T17:25:21;5.20;99.90
3998;DHT22;61314;53.444;9.902;2024-01-27T17:27:48;5.20;99.90
3998;DHT22;61314;53.444;9.902;2024-01-27T17:30:14;5.10;99.90
3998;DHT22;61314;53.444;9.902;2024-01-27T17:32:41;5.10;99.90
3998;DHT22;61314;53.444;9.902;2024-01-27T17:35:10;5.10;99.90
3998;DHT22;61314;53.444;9.902;2024-01-27T17:37:36;5.10;99.90
3998;DHT22;61314;53.444;9.902;2024-01-27T17:42:33;4.90;99.90
3998;DHT22;61314;53.444;9.902;2024-01-27T17:45:00;5.00;99.90
3998;DHT22;61314;53.444;9.902;2024-01-27T17:47:30;4.90;99.90
3998;DHT22;61314;53.444;9.902;2024-01-27T17:49:57;5.00;99.90
3998;DHT22;61314;53.444;9.902;2024-01-27T17:52:24;4.90;99.90
3998;DHT22;61314;53.444;9.902;2024-01-27T17:54:51;5.00;99.90
3998;DHT22;61314;53.444;9.902;2024-01-27T17:57:18;4.80;99.90
3998;DHT22;61314;53.444;9.902;2024-01-27T17:59:45;4.90;99.90
3998;DHT22;61314;53.444;9.902;2024-01-27T18:02:13;4.80;99.90
3998;DHT22;61314;53.444;9.902;2024-01-27T18:04:40;4.80;99.90
3998;DHT22;61314;53.444;9.902;2024-01-27T18:07:07;4.80;99.90
3998;DHT22;61314;53.444;9.902;2024-01-27T18:09:33;4.80;99.90
3998;DHT22;61314;53.444;9.902;2024-01-27T18:12:00;4.80;99.90
3998;DHT22;61314;53.444;9.902;2024-01-27T18:14:28;5.00;99.90
3998;DHT22;61314;53.444;9.902;2024-01-27T18:16:54;4.70;99.90
3998;DHT22;61314;53.444;9.902;2024-01-27T18:19:22;4.70;99.90
3998;DHT22;61314;53.444;9.902;2024-01-27T18:21:51;4.70;99.90
3998;DHT22;61314;53.444;9.902;2024-01-27T18:24:18;4.70;99.90
3998;DHT22;61314;53.444;9.902;2024-01-27T18:26:45;4.60;99.90
3998;DHT22;61314;53.444;9.902;2024-01-27T18:29:11;4.60;99.90
3998;DHT22;61314;53.444;9.902;2024-01-27T18:31:38;4.60;99.90
3998;DHT22;61314;53.444;9.902;2024-01-27T18:34:08;4.60;99.90
3998;DHT22;61314;53.444;9.902;2024-01-27T18:36:35;4.60;99.90
3998;DHT22;61314;53.444;9.902;2024-01-27T18:39:02;4.60;99.90
3998;DHT22;61314;53.444;9.902;2024-01-27T18:41:29;4.60;99.90
3998;DHT22;61314;53.444;9.902;2024-01-27T18:43:56;4.60;99.90
3998;DHT22;61314;53.444;9.902;2024-01-27T18:46:22;4.60;99.90
